createdAt,value
2024-05-09T00:00:35.812Z,88.72
2024-05-09T00:03:10.192Z,88.61
2024-05-09T00:05:38.419Z,88.78
2024-05-09T00:08:05.970Z,89.10
2024-05-09T00:10:37.227Z,88.97
2024-05-09T00:13:09.762Z,89.29
2024-05-09T00:15:37.176Z,89.00
2024-05-09T00:18:05.315Z,89.13
2024-05-09T00:20:37.993Z,88.90
2024-05-09T00:23:09.258Z,88.49
2024-05-09T00:25:36.790Z,88.48
2024-05-09T00:28:03.700Z,88.79
2024-05-09T00:30:35.047Z,88.80
2024-05-09T00:33:07.777Z,88.86
2024-05-09T00:35:35.786Z,88.94
2024-05-09T00:38:02.717Z,89.04
2024-05-09T00:40:40.016Z,89.73
2024-05-09T00:43:09.915Z,89.06
2024-05-09T00:45:36.649Z,89.02
2024-05-09T00:48:07.121Z,89.46
2024-05-09T00:50:37.557Z,89.49
2024-05-09T00:53:10.962Z,89.84
2024-05-09T00:55:38.880Z,89.97
2024-05-09T00:58:08.214Z,89.38
2024-05-09T01:00:39.322Z,89.09
2024-05-09T01:03:09.724Z,89.63
2024-05-09T01:05:39.212Z,89.91
2024-05-09T01:08:07.094Z,89.55
2024-05-09T01:10:35.472Z,89.84
2024-05-09T01:13:04.458Z,89.85
2024-05-09T01:15:31.596Z,90.35
2024-05-09T01:18:01.018Z,90.82
2024-05-09T01:20:39.029Z,90.45
2024-05-09T01:23:09.854Z,90.08
2024-05-09T01:25:36.958Z,89.85
2024-05-09T01:28:03.864Z,90.02
2024-05-09T01:30:34.981Z,89.62
2024-05-09T01:33:05.377Z,89.71
2024-05-09T01:35:33.227Z,89.96
2024-05-09T01:37:59.971Z,90.41
2024-05-09T01:40:36.259Z,90.08
2024-05-09T01:43:06.033Z,90.68
2024-05-09T01:45:32.779Z,91.47
2024-05-09T01:47:59.754Z,91.33
2024-05-09T01:50:37.278Z,91.70
2024-05-09T01:53:08.964Z,92.08
2024-05-09T01:55:35.730Z,92.24
2024-05-09T01:58:02.319Z,91.66
2024-05-09T02:00:37.371Z,91.47
2024-05-09T02:03:10.740Z,92.95
2024-05-09T02:05:39.306Z,92.80
2024-05-09T02:08:07.263Z,92.67
2024-05-09T02:10:33.984Z,93.51
2024-05-09T02:13:01.063Z,93.88
2024-05-09T02:15:27.846Z,93.85
2024-05-09T02:17:54.702Z,93.74
2024-05-09T02:20:30.255Z,93.65
2024-05-09T02:23:03.817Z,93.54
2024-05-09T02:25:30.929Z,93.62
2024-05-09T02:27:57.539Z,93.11
2024-05-09T02:30:37.717Z,93.08
2024-05-09T02:33:08.210Z,92.96
2024-05-09T02:35:35.729Z,93.19
2024-05-09T02:38:02.559Z,92.86
2024-05-09T02:40:36.527Z,92.91
2024-05-09T02:43:10.467Z,92.57
2024-05-09T02:45:41.173Z,92.35
2024-05-09T02:48:12.203Z,92.78
2024-05-09T02:50:44.415Z,91.81
2024-05-09T02:53:11.917Z,92.14
2024-05-09T02:55:39.164Z,92.63
2024-05-09T02:58:07.304Z,93.42
2024-05-09T03:00:38.857Z,93.07
2024-05-09T03:03:09.587Z,93.59
2024-05-09T03:05:37.804Z,93.27
2024-05-09T03:08:04.875Z,93.18
2024-05-09T03:10:36.250Z,93.33
2024-05-09T03:13:13.824Z,93.26
2024-05-09T03:15:41.969Z,93.18
2024-05-09T03:18:08.831Z,93.31
2024-05-09T03:20:36.826Z,93.45
2024-05-09T03:23:09.397Z,93.87
2024-05-09T03:25:36.981Z,93.41
2024-05-09T03:28:03.769Z,93.27
2024-05-09T03:30:39.322Z,93.23
2024-05-09T03:33:19.959Z,94.50
2024-05-09T03:35:48.544Z,94.00
2024-05-09T03:38:15.761Z,94.76
2024-05-09T03:40:46.773Z,95.61
2024-05-09T03:43:13.968Z,95.44
2024-05-09T03:45:40.607Z,96.20
2024-05-09T03:48:07.935Z,96.77
2024-05-09T03:50:36.234Z,96.51
2024-05-09T03:53:03.983Z,96.70
2024-05-09T03:55:31.170Z,97.00
2024-05-09T03:57:57.869Z,96.80
2024-05-09T04:00:31.421Z,96.57
2024-05-09T04:03:05.916Z,96.28
2024-05-09T04:05:34.405Z,96.18
2024-05-09T04:08:01.496Z,95.96
2024-05-09T04:10:35.123Z,97.35
2024-05-09T04:13:03.283Z,96.41
2024-05-09T04:15:30.468Z,96.97
2024-05-09T04:17:57.186Z,97.06
2024-05-09T04:20:33.360Z,97.24
2024-05-09T04:23:14.713Z,98.15
2024-05-09T04:25:43.121Z,97.49
2024-05-09T04:28:10.034Z,97.51
2024-05-09T04:30:39.642Z,97.89
2024-05-09T04:33:10.754Z,97.83
2024-05-09T04:35:39.398Z,98.01
2024-05-09T04:38:06.539Z,97.86
2024-05-09T04:40:36.098Z,98.41
2024-05-09T04:43:04.995Z,98.26
2024-05-09T04:45:31.908Z,98.19
2024-05-09T04:47:58.926Z,98.26
2024-05-09T04:50:35.200Z,98.03
2024-05-09T04:53:05.625Z,98.23
2024-05-09T04:55:39.240Z,99.19
2024-05-09T04:58:08.717Z,99.30
2024-05-09T05:00:37.687Z,99.57
2024-05-09T05:03:09.344Z,99.86
2024-05-09T05:05:41.329Z,100.00
2024-05-09T05:08:18.974Z,100.00
2024-05-09T05:10:47.195Z,100.00
2024-05-09T05:13:23.049Z,100.00
2024-05-09T05:15:56.968Z,100.00
2024-05-09T05:18:25.969Z,100.00
2024-05-09T05:20:52.792Z,100.00
2024-05-09T05:23:20.972Z,100.00
2024-05-09T05:25:50.196Z,100.00
2024-05-09T05:28:17.208Z,100.00
2024-05-09T05:30:44.404Z,100.00
2024-05-09T05:33:12.925Z,100.00
2024-05-09T05:35:40.866Z,99.41
2024-05-09T05:38:08.780Z,98.69
2024-05-09T05:40:38.355Z,96.85
2024-05-09T05:43:07.343Z,95.73
2024-05-09T05:45:34.010Z,95.74
2024-05-09T05:48:04.028Z,93.75
2024-05-09T05:50:35.876Z,91.88
2024-05-09T05:53:07.057Z,89.53
2024-05-09T05:55:34.363Z,87.95
2024-05-09T05:58:02.374Z,86.13
2024-05-09T06:00:35.530Z,85.98
2024-05-09T06:03:06.060Z,85.44
2024-05-09T06:05:33.114Z,83.86
2024-05-09T06:08:00.147Z,81.33
2024-05-09T06:10:36.961Z,79.08
2024-05-09T06:13:06.398Z,77.64
2024-05-09T06:15:32.964Z,76.23
2024-05-09T06:17:59.718Z,75.23
2024-05-09T06:20:34.825Z,74.14
2024-05-09T06:23:04.415Z,75.68
2024-05-09T06:25:31.425Z,73.53
2024-05-09T06:27:59.030Z,72.07
2024-05-09T06:30:30.970Z,71.29
2024-05-09T06:33:06.042Z,69.57
2024-05-09T06:35:33.631Z,69.07
2024-05-09T06:38:00.689Z,67.90
2024-05-09T06:40:36.215Z,67.06
2024-05-09T06:43:10.190Z,66.33
2024-05-09T06:45:37.075Z,67.94
2024-05-09T06:48:04.231Z,66.68
2024-05-09T06:50:37.005Z,65.89
2024-05-09T06:53:05.463Z,64.47
2024-05-09T06:55:32.165Z,64.20
2024-05-09T06:57:59.075Z,63.81
2024-05-09T07:00:34.553Z,63.15
2024-05-09T07:03:15.655Z,62.54
2024-05-09T07:05:45.245Z,61.64
2024-05-09T07:08:12.325Z,59.23
2024-05-09T07:10:39.093Z,58.92
2024-05-09T07:13:13.494Z,58.18
2024-05-09T07:15:41.548Z,57.84
2024-05-09T07:18:17.379Z,57.17
2024-05-09T07:20:45.582Z,55.83
2024-05-09T07:23:12.760Z,56.54
2024-05-09T07:25:40.582Z,55.66
2024-05-09T07:28:15.397Z,56.47
2024-05-09T07:30:42.953Z,55.21
2024-05-09T07:33:09.857Z,55.03
2024-05-09T07:35:37.203Z,54.58
2024-05-09T07:38:04.104Z,54.80
2024-05-09T07:40:35.944Z,54.95
2024-05-09T07:43:04.584Z,53.89
2024-05-09T07:45:48.042Z,52.93
2024-05-09T07:53:38.907Z,53.30
2024-05-09T07:56:09.392Z,53.49
2024-05-09T07:58:36.806Z,54.56
2024-05-09T08:01:03.668Z,52.81
2024-05-09T08:03:30.906Z,52.08
2024-05-09T08:05:57.827Z,51.56
2024-05-09T08:08:24.483Z,52.22
2024-05-09T08:10:51.324Z,49.58
2024-05-09T08:13:18.207Z,49.89
2024-05-09T08:15:45.043Z,48.88
2024-05-09T08:18:12.143Z,49.31
2024-05-09T08:20:39.537Z,48.56
2024-05-09T08:23:06.404Z,48.41
2024-05-09T08:25:33.136Z,48.31
2024-05-09T08:27:59.919Z,48.46
2024-05-09T08:30:33.414Z,50.03
2024-05-09T08:33:05.100Z,50.47
2024-05-09T08:35:32.736Z,49.89
2024-05-09T08:37:59.474Z,50.61
2024-05-09T08:40:33.551Z,48.69
2024-05-09T08:43:06.821Z,49.82
2024-05-09T08:45:35.134Z,49.30
2024-05-09T08:48:06.060Z,49.88
2024-05-09T08:50:38.766Z,49.72
2024-05-09T08:53:07.473Z,49.53
2024-05-09T08:55:35.453Z,49.79
2024-05-09T08:58:04.238Z,50.16
2024-05-09T09:00:36.844Z,50.05
2024-05-09T09:03:09.071Z,48.94
2024-05-09T09:05:38.504Z,49.21
2024-05-09T09:08:07.883Z,48.36
2024-05-09T09:10:35.593Z,47.39
2024-05-09T09:13:04.445Z,46.64
2024-05-09T09:15:31.789Z,45.23
2024-05-09T09:18:01.730Z,45.38
2024-05-09T09:20:35.886Z,47.81
2024-05-09T09:23:04.598Z,44.68
2024-05-09T09:25:31.843Z,41.29
2024-05-09T09:27:59.326Z,40.25
2024-05-09T09:30:36.300Z,40.73
2024-05-09T09:33:06.063Z,40.75
2024-05-09T09:35:33.006Z,38.13
2024-05-09T09:38:02.879Z,38.07
2024-05-09T09:40:37.209Z,39.02
2024-05-09T09:43:14.121Z,38.51
2024-05-09T09:45:43.256Z,37.13
2024-05-09T09:48:11.941Z,38.10
2024-05-09T09:50:40.124Z,36.84
2024-05-09T09:53:07.892Z,38.32
2024-05-09T09:55:35.682Z,36.19
2024-05-09T09:58:04.105Z,36.03
2024-05-09T10:00:33.613Z,34.17
2024-05-09T10:03:01.710Z,34.64
2024-05-09T10:05:29.379Z,34.49
2024-05-09T10:07:57.428Z,35.05
2024-05-09T10:10:31.644Z,34.59
2024-05-09T10:13:09.089Z,34.90
2024-05-09T10:15:52.299Z,35.32
2024-05-09T10:18:28.118Z,34.73
2024-05-09T10:20:57.105Z,35.15
2024-05-09T10:23:32.344Z,35.18
2024-05-09T10:26:06.240Z,35.24
2024-05-09T10:28:37.551Z,35.95
2024-05-09T10:31:15.466Z,34.65
2024-05-09T10:33:51.766Z,34.22
2024-05-09T10:36:26.194Z,34.24
2024-05-09T10:38:53.958Z,35.24
2024-05-09T10:41:22.689Z,33.76
2024-05-09T10:43:50.494Z,34.43
2024-05-09T10:46:19.120Z,34.21
2024-05-09T10:48:47.376Z,33.44
2024-05-09T10:51:14.683Z,32.89
2024-05-09T10:53:46.153Z,34.85
2024-05-09T10:56:16.532Z,34.35
2024-05-09T10:58:43.312Z,33.34
2024-05-09T11:01:11.040Z,33.36
2024-05-09T11:03:39.042Z,33.16
2024-05-09T11:06:06.646Z,33.15
2024-05-09T11:08:34.046Z,32.87
2024-05-09T11:11:03.004Z,33.05
2024-05-09T11:13:31.627Z,32.87
2024-05-09T11:16:02.185Z,32.59
2024-05-09T11:18:33.807Z,33.21
2024-05-09T11:21:11.148Z,33.53
2024-05-09T11:23:38.128Z,32.83
2024-05-09T11:26:04.930Z,32.72
2024-05-09T11:28:31.603Z,31.90
2024-05-09T11:31:10.112Z,33.05
2024-05-09T11:33:39.130Z,33.09
2024-05-09T11:36:07.055Z,33.10
2024-05-09T11:38:33.706Z,34.33
2024-05-09T11:41:00.340Z,32.92
2024-05-09T11:43:27.019Z,33.13
2024-05-09T11:45:53.782Z,33.09
2024-05-09T11:48:20.783Z,32.11
2024-05-09T11:50:47.505Z,32.35
2024-05-09T11:53:14.070Z,32.13
2024-05-09T11:55:40.662Z,34.26
2024-05-09T11:58:08.387Z,33.65
2024-05-09T12:00:37.456Z,33.53
2024-05-09T12:03:05.871Z,33.75
2024-05-09T12:05:34.136Z,33.78
2024-05-09T12:08:01.463Z,33.77
2024-05-09T12:10:33.428Z,34.33
2024-05-09T12:13:04.378Z,33.94
2024-05-09T12:15:32.494Z,33.67
2024-05-09T12:18:01.691Z,34.53
2024-05-09T12:20:36.584Z,35.10
2024-05-09T12:23:06.467Z,35.36
2024-05-09T12:25:33.277Z,34.14
2024-05-09T12:28:00.311Z,35.24
2024-05-09T12:30:35.513Z,34.29
2024-05-09T12:33:06.765Z,34.54
2024-05-09T12:35:33.400Z,35.24
2024-05-09T12:38:00.291Z,33.77
2024-05-09T12:40:35.333Z,33.92
2024-05-09T12:43:06.126Z,35.04
2024-05-09T12:45:32.971Z,35.80
2024-05-09T12:47:59.808Z,35.35
2024-05-09T12:50:32.405Z,36.36
2024-05-09T12:53:01.006Z,35.70
2024-05-09T12:55:28.553Z,35.11
2024-05-09T12:57:57.261Z,34.51
2024-05-09T13:00:31.086Z,35.81
2024-05-09T13:03:01.202Z,34.60
2024-05-09T13:05:28.494Z,35.66
2024-05-09T13:07:56.671Z,35.25
2024-05-09T13:10:30.854Z,35.15
2024-05-09T13:13:00.798Z,34.42
2024-05-09T13:15:28.094Z,35.12
2024-05-09T13:17:57.277Z,35.41
2024-05-09T13:20:31.986Z,35.41
2024-05-09T13:23:02.663Z,35.01
2024-05-09T13:25:29.373Z,34.18
2024-05-09T13:27:56.741Z,34.74
2024-05-09T13:30:29.820Z,35.12
2024-05-09T13:33:06.323Z,34.80
2024-05-09T13:35:35.325Z,36.02
2024-05-09T13:38:03.735Z,35.00
2024-05-09T13:40:34.443Z,35.69
2024-05-09T13:43:04.076Z,36.59
2024-05-09T13:45:31.073Z,36.49
2024-05-09T13:47:58.168Z,37.20
2024-05-09T13:50:33.176Z,36.60
2024-05-09T13:53:02.694Z,37.84
2024-05-09T13:55:29.264Z,37.79
2024-05-09T13:57:56.335Z,37.45
2024-05-09T14:00:37.350Z,38.13
2024-05-09T14:03:10.071Z,37.13
2024-05-09T14:05:37.034Z,38.72
2024-05-09T14:08:04.144Z,38.10
2024-05-09T14:10:32.228Z,37.20
2024-05-09T14:13:00.749Z,38.08
2024-05-09T14:15:27.773Z,38.27
2024-05-09T14:17:55.301Z,37.32
2024-05-09T14:20:31.035Z,36.98
2024-05-09T14:23:00.398Z,36.85
2024-05-09T14:25:28.633Z,37.67
2024-05-09T14:27:57.533Z,37.37
2024-05-09T14:30:31.020Z,37.13
2024-05-09T14:33:04.155Z,37.32
2024-05-09T14:35:30.975Z,37.37
2024-05-09T14:37:57.679Z,37.29
2024-05-09T14:42:53.725Z,38.87
2024-05-09T14:45:20.738Z,38.56
2024-05-09T14:47:47.467Z,39.13
2024-05-09T14:50:23.528Z,39.10
2024-05-09T14:52:54.768Z,38.33
2024-05-09T14:55:21.499Z,38.94
2024-05-09T14:57:48.345Z,39.49
2024-05-09T15:00:21.473Z,39.65
2024-05-09T15:02:55.447Z,39.55
2024-05-09T15:05:47.936Z,38.65
2024-05-09T15:08:17.429Z,38.72
2024-05-09T15:10:44.224Z,38.76
2024-05-09T15:13:13.241Z,37.82
2024-05-09T15:15:41.864Z,39.02
2024-05-09T15:18:08.798Z,39.56
2024-05-09T15:20:37.131Z,40.34
2024-05-09T15:23:05.522Z,40.52
2024-05-09T15:25:33.533Z,40.57
2024-05-09T15:28:00.420Z,40.75
2024-05-09T15:30:31.443Z,42.75
2024-05-09T15:33:00.859Z,41.82
2024-05-09T15:35:27.926Z,42.92
2024-05-09T15:37:54.650Z,42.49
2024-05-09T15:40:30.885Z,43.14
2024-05-09T15:43:05.219Z,43.02
2024-05-09T15:45:32.145Z,44.30
2024-05-09T15:47:59.596Z,44.37
2024-05-09T15:50:36.080Z,43.97
2024-05-09T15:53:07.630Z,44.47
2024-05-09T15:55:35.190Z,44.73
2024-05-09T15:58:03.216Z,45.16
2024-05-09T16:00:37.803Z,46.38
2024-05-09T16:03:12.775Z,46.87
2024-05-09T16:05:41.410Z,48.13
2024-05-09T16:08:08.995Z,46.82
2024-05-09T16:10:37.063Z,47.27
2024-05-09T16:13:04.991Z,47.21
2024-05-09T16:15:32.139Z,47.91
2024-05-09T16:17:59.785Z,47.10
2024-05-09T16:20:34.959Z,47.41
2024-05-09T16:23:07.300Z,47.80
2024-05-09T16:25:34.093Z,47.61
2024-05-09T16:28:01.748Z,46.72
2024-05-09T16:30:34.500Z,47.09
2024-05-09T16:33:04.303Z,47.68
2024-05-09T16:35:32.119Z,48.11
2024-05-09T16:38:02.198Z,48.72
2024-05-09T16:40:36.400Z,48.64
2024-05-09T16:43:06.696Z,50.13
2024-05-09T16:45:34.240Z,49.98
2024-05-09T16:48:01.913Z,50.04
2024-05-09T16:50:33.466Z,49.84
2024-05-09T16:53:02.444Z,50.10
2024-05-09T16:55:29.136Z,50.32
2024-05-09T16:57:57.255Z,50.10
2024-05-09T17:00:35.221Z,50.30
2024-05-09T17:03:08.702Z,50.57
2024-05-09T17:05:36.120Z,51.17
2024-05-09T17:08:03.472Z,51.25
2024-05-09T17:10:33.609Z,52.09
2024-05-09T17:13:03.265Z,52.32
2024-05-09T17:15:31.931Z,51.79
2024-05-09T17:17:58.828Z,52.10
2024-05-09T17:20:32.211Z,52.75
2024-05-09T17:23:02.729Z,52.91
2024-05-09T17:25:29.552Z,52.45
2024-05-09T17:27:57.072Z,53.58
2024-05-09T17:30:32.003Z,53.26
2024-05-09T17:33:03.978Z,53.60
2024-05-09T17:35:31.660Z,53.72
2024-05-09T17:37:59.580Z,53.33
2024-05-09T17:40:32.622Z,53.21
2024-05-09T17:43:02.994Z,53.64
2024-05-09T17:45:29.799Z,53.91
2024-05-09T17:47:56.770Z,53.99
2024-05-09T17:50:30.369Z,54.47
2024-05-09T17:53:01.290Z,56.03
2024-05-09T17:55:28.666Z,55.65
2024-05-09T17:57:55.553Z,56.61
2024-05-09T18:00:32.846Z,56.92
2024-05-09T18:03:05.882Z,57.08
2024-05-09T18:05:32.942Z,56.51
2024-05-09T18:07:59.966Z,57.37
2024-05-09T18:10:33.698Z,57.04
2024-05-09T18:13:05.313Z,57.47
2024-05-09T18:15:32.322Z,58.32
2024-05-09T18:17:59.445Z,57.00
2024-05-09T18:20:32.994Z,56.79
2024-05-09T18:23:07.863Z,56.97
2024-05-09T18:25:34.911Z,57.11
2024-05-09T18:28:02.795Z,57.07
2024-05-09T18:30:34.754Z,56.92
2024-05-09T18:33:04.313Z,57.33
2024-05-09T18:35:31.686Z,56.86
2024-05-09T18:37:58.402Z,56.47
2024-05-09T18:40:32.415Z,57.21
2024-05-09T18:43:02.953Z,56.96
2024-05-09T18:45:29.834Z,57.32
2024-05-09T18:47:56.831Z,57.30
2024-05-09T18:50:32.235Z,58.16
2024-05-09T18:53:03.471Z,57.78
2024-05-09T18:55:30.047Z,58.93
2024-05-09T18:57:56.991Z,58.50
2024-05-09T19:00:33.208Z,59.07
2024-05-09T19:03:05.592Z,59.44
2024-05-09T19:05:33.294Z,59.35
2024-05-09T19:08:00.424Z,59.72
2024-05-09T19:10:33.704Z,60.57
2024-05-09T19:13:04.312Z,61.02
2024-05-09T19:15:33.646Z,60.61
2024-05-09T19:18:00.662Z,61.10
2024-05-09T19:20:33.166Z,61.36
2024-05-09T19:23:01.538Z,61.97
2024-05-09T19:25:28.125Z,61.74
2024-05-09T19:27:54.782Z,62.08
2024-05-09T19:30:29.908Z,62.48
2024-05-09T19:33:04.944Z,62.87
2024-05-09T19:35:32.227Z,63.06
2024-05-09T19:37:58.997Z,63.19
2024-05-09T19:40:31.299Z,63.80
2024-05-09T19:43:00.442Z,64.07
2024-05-09T19:45:27.351Z,64.82
2024-05-09T19:47:54.264Z,66.23
2024-05-09T19:50:27.139Z,66.03
2024-05-09T19:53:03.096Z,66.54
2024-05-09T19:55:29.920Z,66.44
2024-05-09T19:57:56.931Z,66.75
2024-05-09T20:00:32.321Z,67.73
2024-05-09T20:03:02.387Z,67.21
2024-05-09T20:05:31.465Z,68.22
2024-05-09T20:07:58.386Z,68.49
2024-05-09T20:10:31.126Z,67.36
2024-05-09T20:13:00.026Z,69.00
2024-05-09T20:15:26.866Z,68.69
2024-05-09T20:17:54.343Z,68.91
2024-05-09T20:20:32.085Z,69.26
2024-05-09T20:23:03.903Z,68.77
2024-05-09T20:25:30.509Z,70.54
2024-05-09T20:27:57.175Z,70.80
2024-05-09T20:30:31.225Z,70.97
2024-05-09T20:32:59.994Z,71.09
2024-05-09T20:35:26.958Z,70.93
2024-05-09T20:37:53.651Z,70.98
2024-05-09T20:40:28.344Z,71.22
2024-05-09T20:42:59.208Z,71.87
2024-05-09T20:45:26.351Z,71.05
2024-05-09T20:47:53.220Z,71.61
2024-05-09T20:50:28.523Z,71.67
2024-05-09T20:53:03.027Z,71.12
2024-05-09T20:55:30.068Z,71.50
2024-05-09T20:57:57.525Z,71.00
2024-05-09T21:00:34.308Z,71.48
2024-05-09T21:03:06.723Z,71.44
2024-05-09T21:05:34.648Z,71.40
2024-05-09T21:08:01.854Z,71.74
2024-05-09T21:10:32.732Z,71.28
2024-05-09T21:13:01.407Z,71.25
2024-05-09T21:15:28.359Z,71.90
2024-05-09T21:17:55.215Z,71.89
2024-05-09T21:20:28.700Z,71.48
2024-05-09T21:22:58.195Z,71.36
2024-05-09T21:25:24.858Z,71.62
2024-05-09T21:27:51.529Z,71.78
2024-05-09T21:30:27.295Z,71.60
2024-05-09T21:32:59.934Z,71.86
2024-05-09T21:35:26.595Z,72.21
2024-05-09T21:37:53.173Z,72.10
2024-05-09T21:40:27.278Z,72.50
2024-05-09T21:43:00.776Z,72.14
2024-05-09T21:45:27.551Z,71.91
2024-05-09T21:47:54.306Z,72.10
2024-05-09T21:50:27.634Z,72.25
2024-05-09T21:52:58.910Z,72.70
2024-05-09T21:55:25.540Z,72.90
2024-05-09T21:57:52.385Z,72.65
2024-05-09T22:00:28.710Z,72.87
2024-05-09T22:03:02.664Z,73.01
2024-05-09T22:05:29.604Z,73.36
2024-05-09T22:07:57.162Z,74.17
2024-05-09T22:10:30.520Z,73.69
2024-05-09T22:13:01.045Z,73.02
2024-05-09T22:15:28.266Z,73.05
2024-05-09T22:17:57.125Z,73.91
2024-05-09T22:20:32.952Z,73.64
2024-05-09T22:23:03.998Z,74.49
2024-05-09T22:25:31.478Z,74.90
2024-05-09T22:27:59.025Z,74.86
2024-05-09T22:30:34.178Z,75.26
2024-05-09T22:33:05.746Z,74.58
2024-05-09T22:35:32.741Z,74.93
2024-05-09T22:37:59.424Z,75.23
2024-05-09T22:40:38.030Z,75.81
2024-05-09T22:43:12.824Z,76.02
2024-05-09T22:45:39.623Z,76.50
2024-05-09T22:48:07.643Z,75.86
2024-05-09T22:50:34.610Z,76.97
2024-05-09T22:53:01.375Z,77.17
2024-05-09T22:55:28.107Z,77.79
2024-05-09T22:57:55.037Z,78.02
2024-05-09T23:00:29.444Z,77.10
2024-05-09T23:03:00.337Z,77.59
2024-05-09T23:05:27.319Z,79.08
2024-05-09T23:07:54.028Z,78.73
2024-05-09T23:10:27.904Z,78.83
2024-05-09T23:13:00.826Z,78.17
2024-05-09T23:15:27.484Z,78.31
2024-05-09T23:17:54.269Z,78.18
2024-05-09T23:20:30.028Z,78.39
2024-05-09T23:23:03.714Z,78.01
2024-05-09T23:25:30.403Z,78.29
2024-05-09T23:27:57.230Z,78.57
2024-05-09T23:30:33.335Z,79.00
2024-05-09T23:33:05.426Z,78.34
2024-05-09T23:35:32.106Z,78.05
2024-05-09T23:37:58.693Z,78.04
2024-05-09T23:40:36.825Z,78.53
2024-05-09T23:43:07.360Z,78.50
2024-05-09T23:45:34.613Z,78.55
2024-05-09T23:48:01.720Z,78.84
2024-05-09T23:50:34.125Z,78.64
2024-05-09T23:53:03.942Z,78.21
2024-05-09T23:55:31.458Z,78.49
2024-05-09T23:57:58.355Z,79.33
